sensor_id;sensor_type;location;lat;lon;timestamp;P1;durP1;ratioP1;P2;durP2;ratioP2
44446;SDS011;30152;52.066;5.358;2024-02-26T08:23:12;41.45;;;22.65;;
44446;SDS011;30152;52.066;5.358;2024-02-26T08:25:38;39.95;;;21.92;;
44446;SDS011;30152;52.066;5.358;2024-02-26T08:28:04;37.95;;;21.80;;
44446;SDS011;30152;52.066;5.358;2024-02-26T08:30:30;39.55;;;21.88;;
44446;SDS011;30152;52.066;5.358;2024-02-26T08:32:56;37.38;;;21.27;;
44446;SDS011;30152;52.066;5.358;2024-02-26T08:35:22;34.80;;;19.98;;
44446;SDS011;30152;52.066;5.358;2024-02-26T08:37:48;33.92;;;19.75;;
44446;SDS011;30152;52.066;5.358;2024-02-26T08:40:14;32.47;;;18.15;;
44446;SDS011;30152;52.066;5.358;2024-02-26T08:42:40;32.08;;;18.80;;
44446;SDS011;30152;52.066;5.358;2024-02-26T08:45:07;28.85;;;17.35;;
44446;SDS011;30152;52.066;5.358;2024-02-26T08:47:33;29.60;;;17.27;;
44446;SDS011;30152;52.066;5.358;2024-02-26T08:49:59;27.83;;;17.00;;
44446;SDS011;30152;52.066;5.358;2024-02-26T08:52:25;27.80;;;16.65;;
44446;SDS011;30152;52.066;5.358;2024-02-26T08:54:51;26.45;;;16.27;;
44446;SDS011;30152;52.066;5.358;2024-02-26T08:57:17;22.80;;;14.43;;
44446;SDS011;30152;52.066;5.358;2024-02-26T08:59:43;24.42;;;14.90;;
44446;SDS011;30152;52.066;5.358;2024-02-26T09:02:10;25.65;;;14.32;;
44446;SDS011;30152;52.066;5.358;2024-02-26T09:04:36;24.27;;;13.50;;
44446;SDS011;30152;52.066;5.358;2024-02-26T09:07:03;21.60;;;13.40;;
44446;SDS011;30152;52.066;5.358;2024-02-26T09:09:29;21.27;;;13.15;;
44446;SDS011;30152;52.066;5.358;2024-02-26T09:11:55;22.63;;;13.82;;
44446;SDS011;30152;52.066;5.358;2024-02-26T09:14:21;21.48;;;13.48;;
44446;SDS011;30152;52.066;5.358;2024-02-26T09:16:47;22.30;;;13.77;;
44446;SDS011;30152;52.066;5.358;2024-02-26T09:19:14;21.85;;;12.93;;
44446;SDS011;30152;52.066;5.358;2024-02-26T09:21:43;20.02;;;12.55;;
44446;SDS011;30152;52.066;5.358;2024-02-26T09:24:10;22.67;;;11.90;;
44446;SDS011;30152;52.066;5.358;2024-02-26T09:26:36;20.92;;;12.52;;
44446;SDS011;30152;52.066;5.358;2024-02-26T09:29:02;22.02;;;11.70;;
44446;SDS011;30152;52.066;5.358;2024-02-26T09:31:29;21.83;;;12.30;;
44446;SDS011;30152;52.066;5.358;2024-02-26T09:33:55;20.30;;;12.15;;
44446;SDS011;30152;52.066;5.358;2024-02-26T09:36:21;22.50;;;12.05;;
44446;SDS011;30152;52.066;5.358;2024-02-26T09:38:47;36.33;;;19.85;;
44446;SDS011;30152;52.066;5.358;2024-02-26T09:41:16;20.30;;;11.68;;
44446;SDS011;30152;52.066;5.358;2024-02-26T09:43:43;20.98;;;12.05;;
44446;SDS011;30152;52.066;5.358;2024-02-26T09:46:11;19.67;;;11.93;;
44446;SDS011;30152;52.066;5.358;2024-02-26T09:48:38;20.80;;;11.90;;
44446;SDS011;30152;52.066;5.358;2024-02-26T09:51:05;19.27;;;10.77;;
44446;SDS011;30152;52.066;5.358;2024-02-26T09:53:31;19.52;;;11.07;;
44446;SDS011;30152;52.066;5.358;2024-02-26T09:56:00;18.95;;;11.60;;
44446;SDS011;30152;52.066;5.358;2024-02-26T09:58:27;19.17;;;10.80;;
44446;SDS011;30152;52.066;5.358;2024-02-26T10:00:56;19.73;;;11.20;;
44446;SDS011;30152;52.066;5.358;2024-02-26T10:03:25;19.15;;;11.15;;
44446;SDS011;30152;52.066;5.358;2024-02-26T10:05:54;20.02;;;11.20;;
44446;SDS011;30152;52.066;5.358;2024-02-26T10:08:20;19.03;;;11.20;;
44446;SDS011;30152;52.066;5.358;2024-02-26T10:10:47;18.15;;;10.52;;
44446;SDS011;30152;52.066;5.358;2024-02-26T10:13:13;17.55;;;10.30;;
44446;SDS011;30152;52.066;5.358;2024-02-26T10:15:39;19.33;;;11.18;;
44446;SDS011;30152;52.066;5.358;2024-02-26T10:18:05;20.95;;;10.40;;
44446;SDS011;30152;52.066;5.358;2024-02-26T10:20:31;20.55;;;10.55;;
44446;SDS011;30152;52.066;5.358;2024-02-26T10:22:58;19.33;;;10.80;;
44446;SDS011;30152;52.066;5.358;2024-02-26T10:25:24;19.30;;;10.43;;
44446;SDS011;30152;52.066;5.358;2024-02-26T10:27:50;18.83;;;10.23;;
44446;SDS011;30152;52.066;5.358;2024-02-26T10:30:17;19.95;;;10.82;;
44446;SDS011;30152;52.066;5.358;2024-02-26T10:32:45;18.08;;;10.35;;
44446;SDS011;30152;52.066;5.358;2024-02-26T10:35:14;17.92;;;10.38;;
44446;SDS011;30152;52.066;5.358;2024-02-26T10:37:41;20.60;;;10.77;;
44446;SDS011;30152;52.066;5.358;2024-02-26T10:40:10;18.63;;;10.45;;
44446;SDS011;30152;52.066;5.358;2024-02-26T10:42:37;19.25;;;10.35;;
44446;SDS011;30152;52.066;5.358;2024-02-26T10:45:06;17.05;;;10.15;;
44446;SDS011;30152;52.066;5.358;2024-02-26T10:47:34;19.25;;;10.73;;
44446;SDS011;30152;52.066;5.358;2024-02-26T10:50:01;18.85;;;11.32;;
44446;SDS011;30152;52.066;5.358;2024-02-26T10:52:27;18.05;;;10.32;;
44446;SDS011;30152;52.066;5.358;2024-02-26T10:54:56;17.17;;;10.02;;
44446;SDS011;30152;52.066;5.358;2024-02-26T10:57:22;21.30;;;10.90;;
44446;SDS011;30152;52.066;5.358;2024-02-26T10:59:50;18.80;;;10.57;;
44446;SDS011;30152;52.066;5.358;2024-02-26T11:02:18;17.38;;;9.70;;
44446;SDS011;30152;52.066;5.358;2024-02-26T11:04:44;18.52;;;10.63;;
44446;SDS011;30152;52.066;5.358;2024-02-26T11:07:10;18.40;;;10.15;;
44446;SDS011;30152;52.066;5.358;2024-02-26T11:09:36;17.77;;;10.10;;
44446;SDS011;30152;52.066;5.358;2024-02-26T11:12:08;18.25;;;10.23;;
44446;SDS011;30152;52.066;5.358;2024-02-26T11:14:37;17.25;;;9.73;;
44446;SDS011;30152;52.066;5.358;2024-02-26T11:17:04;16.17;;;9.33;;
44446;SDS011;30152;52.066;5.358;2024-02-26T11:19:31;19.92;;;10.65;;
44446;SDS011;30152;52.066;5.358;2024-02-26T11:21:58;17.88;;;9.90;;
44446;SDS011;30152;52.066;5.358;2024-02-26T11:24:26;17.27;;;9.38;;
44446;SDS011;30152;52.066;5.358;2024-02-26T11:26:56;18.58;;;10.00;;
44446;SDS011;30152;52.066;5.358;2024-02-26T11:29:44;17.80;;;10.07;;
44446;SDS011;30152;52.066;5.358;2024-02-26T11:32:13;17.58;;;9.65;;
44446;SDS011;30152;52.066;5.358;2024-02-26T11:34:39;17.92;;;9.68;;
44446;SDS011;30152;52.066;5.358;2024-02-26T11:37:12;17.03;;;10.10;;
44446;SDS011;30152;52.066;5.358;2024-02-26T11:39:42;17.73;;;10.07;;
44446;SDS011;30152;52.066;5.358;2024-02-26T11:42:10;16.70;;;9.82;;
44446;SDS011;30152;52.066;5.358;2024-02-26T11:44:39;16.30;;;9.50;;
44446;SDS011;30152;52.066;5.358;2024-02-26T11:47:18;18.25;;;9.93;;
44446;SDS011;30152;52.066;5.358;2024-02-26T11:49:45;16.85;;;9.95;;
44446;SDS011;30152;52.066;5.358;2024-02-26T11:52:12;16.50;;;9.68;;
44446;SDS011;30152;52.066;5.358;2024-02-26T11:54:48;17.00;;;10.40;;
44446;SDS011;30152;52.066;5.358;2024-02-26T11:57:27;17.83;;;10.20;;
44446;SDS011;30152;52.066;5.358;2024-02-26T11:59:55;18.30;;;10.27;;
44446;SDS011;30152;52.066;5.358;2024-02-26T12:02:37;18.17;;;10.68;;
44446;SDS011;30152;52.066;5.358;2024-02-26T12:05:09;18.52;;;10.50;;
44446;SDS011;30152;52.066;5.358;2024-02-26T12:07:37;21.65;;;11.50;;
44446;SDS011;30152;52.066;5.358;2024-02-26T12:12:54;18.77;;;10.55;;
44446;SDS011;30152;52.066;5.358;2024-02-26T12:15:22;17.08;;;10.43;;
44446;SDS011;30152;52.066;5.358;2024-02-26T12:17:48;18.30;;;10.13;;
44446;SDS011;30152;52.066;5.358;2024-02-26T12:20:15;17.17;;;10.57;;
44446;SDS011;30152;52.066;5.358;2024-02-26T12:22:44;18.77;;;10.57;;
44446;SDS011;30152;52.066;5.358;2024-02-26T12:25:11;18.73;;;10.48;;
44446;SDS011;30152;52.066;5.358;2024-02-26T12:27:38;17.85;;;10.57;;
44446;SDS011;30152;52.066;5.358;2024-02-26T12:30:04;18.63;;;10.32;;
44446;SDS011;30152;52.066;5.358;2024-02-26T12:32:32;17.50;;;10.32;;
44446;SDS011;30152;52.066;5.358;2024-02-26T12:34:58;16.63;;;9.73;;
44446;SDS011;30152;52.066;5.358;2024-02-26T12:37:25;16.30;;;9.57;;
44446;SDS011;30152;52.066;5.358;2024-02-26T12:39:51;17.35;;;10.18;;
44446;SDS011;30152;52.066;5.358;2024-02-26T12:42:17;16.42;;;10.00;;
44446;SDS011;30152;52.066;5.358;2024-02-26T12:44:44;16.42;;;9.20;;
44446;SDS011;30152;52.066;5.358;2024-02-26T12:47:10;15.47;;;8.87;;
44446;SDS011;30152;52.066;5.358;2024-02-26T12:49:41;16.58;;;9.70;;
44446;SDS011;30152;52.066;5.358;2024-02-26T12:52:09;16.23;;;9.32;;
44446;SDS011;30152;52.066;5.358;2024-02-26T12:54:35;16.50;;;9.95;;
44446;SDS011;30152;52.066;5.358;2024-02-26T12:57:04;17.30;;;9.73;;
44446;SDS011;30152;52.066;5.358;2024-02-26T12:59:33;16.92;;;9.73;;
44446;SDS011;30152;52.066;5.358;2024-02-26T13:02:00;16.47;;;9.43;;
44446;SDS011;30152;52.066;5.358;2024-02-26T13:04:29;16.45;;;9.50;;
44446;SDS011;30152;52.066;5.358;2024-02-26T13:06:55;16.95;;;9.82;;
44446;SDS011;30152;52.066;5.358;2024-02-26T13:09:27;16.52;;;8.95;;
44446;SDS011;30152;52.066;5.358;2024-02-26T13:11:54;14.82;;;8.77;;
44446;SDS011;30152;52.066;5.358;2024-02-26T13:14:20;17.27;;;9.33;;
44446;SDS011;30152;52.066;5.358;2024-02-26T13:16:55;14.88;;;8.60;;
44446;SDS011;30152;52.066;5.358;2024-02-26T13:19:22;15.88;;;9.45;;
44446;SDS011;30152;52.066;5.358;2024-02-26T13:21:48;16.10;;;9.10;;
44446;SDS011;30152;52.066;5.358;2024-02-26T13:24:14;17.20;;;9.80;;
44446;SDS011;30152;52.066;5.358;2024-02-26T13:26:40;16.27;;;8.40;;
44446;SDS011;30152;52.066;5.358;2024-02-26T13:29:06;15.50;;;9.00;;
44446;SDS011;30152;52.066;5.358;2024-02-26T13:31:38;14.60;;;8.97;;
44446;SDS011;30152;52.066;5.358;2024-02-26T13:34:07;15.27;;;9.30;;
44446;SDS011;30152;52.066;5.358;2024-02-26T13:36:33;15.37;;;8.73;;
44446;SDS011;30152;52.066;5.358;2024-02-26T13:38:59;15.25;;;9.10;;
44446;SDS011;30152;52.066;5.358;2024-02-26T13:41:26;18.67;;;9.77;;
44446;SDS011;30152;52.066;5.358;2024-02-26T13:43:52;16.10;;;9.40;;
44446;SDS011;30152;52.066;5.358;2024-02-26T13:46:18;15.32;;;8.90;;
44446;SDS011;30152;52.066;5.358;2024-02-26T13:48:44;15.60;;;9.15;;
44446;SDS011;30152;52.066;5.358;2024-02-26T13:51:10;16.50;;;8.88;;
44446;SDS011;30152;52.066;5.358;2024-02-26T13:53:37;15.75;;;9.00;;
44446;SDS011;30152;52.066;5.358;2024-02-26T13:56:03;16.80;;;9.15;;
44446;SDS011;30152;52.066;5.358;2024-02-26T13:58:30;15.10;;;8.75;;
44446;SDS011;30152;52.066;5.358;2024-02-26T14:00:56;14.00;;;8.25;;
44446;SDS011;30152;52.066;5.358;2024-02-26T14:03:24;14.80;;;8.50;;
44446;SDS011;30152;52.066;5.358;2024-02-26T14:05:51;14.65;;;8.10;;
44446;SDS011;30152;52.066;5.358;2024-02-26T14:08:17;13.18;;;8.00;;
44446;SDS011;30152;52.066;5.358;2024-02-26T14:10:44;13.68;;;8.30;;
44446;SDS011;30152;52.066;5.358;2024-02-26T14:13:10;15.38;;;8.18;;
44446;SDS011;30152;52.066;5.358;2024-02-26T14:15:36;14.60;;;8.23;;
44446;SDS011;30152;52.066;5.358;2024-02-26T14:18:03;13.88;;;7.95;;
44446;SDS011;30152;52.066;5.358;2024-02-26T14:20:29;14.07;;;7.80;;
44446;SDS011;30152;52.066;5.358;2024-02-26T14:22:55;14.37;;;7.37;;
44446;SDS011;30152;52.066;5.358;2024-02-26T14:25:21;13.85;;;7.57;;
44446;SDS011;30152;52.066;5.358;2024-02-26T14:27:47;13.57;;;7.10;;
44446;SDS011;30152;52.066;5.358;2024-02-26T14:30:13;13.48;;;6.80;;
44446;SDS011;30152;52.066;5.358;2024-02-26T14:32:40;11.95;;;6.85;;
44446;SDS011;30152;52.066;5.358;2024-02-26T14:35:09;14.45;;;7.25;;
44446;SDS011;30152;52.066;5.358;2024-02-26T14:37:35;12.90;;;7.38;;
44446;SDS011;30152;52.066;5.358;2024-02-26T14:40:02;12.05;;;5.97;;
44446;SDS011;30152;52.066;5.358;2024-02-26T14:42:28;10.75;;;5.63;;
44446;SDS011;30152;52.066;5.358;2024-02-26T14:44:54;12.05;;;6.78;;
44446;SDS011;30152;52.066;5.358;2024-02-26T14:47:20;11.35;;;6.32;;
44446;SDS011;30152;52.066;5.358;2024-02-26T14:49:46;10.93;;;6.35;;
44446;SDS011;30152;52.066;5.358;2024-02-26T14:52:13;13.50;;;7.72;;
44446;SDS011;30152;52.066;5.358;2024-02-26T14:54:40;10.93;;;6.80;;
44446;SDS011;30152;52.066;5.358;2024-02-26T14:57:06;12.20;;;6.70;;
44446;SDS011;30152;52.066;5.358;2024-02-26T14:59:32;11.77;;;6.68;;
44446;SDS011;30152;52.066;5.358;2024-02-26T15:01:58;12.77;;;6.60;;
44446;SDS011;30152;52.066;5.358;2024-02-26T15:04:25;11.57;;;7.05;;
44446;SDS011;30152;52.066;5.358;2024-02-26T15:06:51;12.02;;;6.70;;
44446;SDS011;30152;52.066;5.358;2024-02-26T15:09:17;10.45;;;5.72;;
44446;SDS011;30152;52.066;5.358;2024-02-26T15:11:43;10.07;;;5.18;;
44446;SDS011;30152;52.066;5.358;2024-02-26T15:14:09;11.52;;;5.53;;
44446;SDS011;30152;52.066;5.358;2024-02-26T15:16:36;9.30;;;5.32;;
44446;SDS011;30152;52.066;5.358;2024-02-26T15:19:02;8.97;;;4.90;;
44446;SDS011;30152;52.066;5.358;2024-02-26T15:21:32;9.85;;;4.80;;
44446;SDS011;30152;52.066;5.358;2024-02-26T15:23:58;8.48;;;4.70;;
44446;SDS011;30152;52.066;5.358;2024-02-26T15:26:24;9.93;;;4.60;;
44446;SDS011;30152;52.066;5.358;2024-02-26T15:28:51;9.20;;;4.18;;
44446;SDS011;30152;52.066;5.358;2024-02-26T15:31:17;9.15;;;5.05;;
44446;SDS011;30152;52.066;5.358;2024-02-26T15:33:44;10.17;;;4.33;;
44446;SDS011;30152;52.066;5.358;2024-02-26T15:36:10;8.10;;;4.37;;
44446;SDS011;30152;52.066;5.358;2024-02-26T15:38:36;10.85;;;4.55;;
44446;SDS011;30152;52.066;5.358;2024-02-26T15:41:03;9.40;;;5.30;;
44446;SDS011;30152;52.066;5.358;2024-02-26T15:43:32;9.35;;;4.60;;
44446;SDS011;30152;52.066;5.358;2024-02-26T15:45:58;9.77;;;4.50;;
44446;SDS011;30152;52.066;5.358;2024-02-26T15:48:26;11.13;;;4.70;;
44446;SDS011;30152;52.066;5.358;2024-02-26T15:50:53;8.93;;;4.50;;
44446;SDS011;30152;52.066;5.358;2024-02-26T15:53:19;10.48;;;4.97;;
44446;SDS011;30152;52.066;5.358;2024-02-26T15:55:45;9.90;;;4.55;;
44446;SDS011;30152;52.066;5.358;2024-02-26T15:58:11;10.07;;;4.65;;
44446;SDS011;30152;52.066;5.358;2024-02-26T16:00:40;10.32;;;4.68;;
44446;SDS011;30152;52.066;5.358;2024-02-26T16:03:07;10.27;;;5.20;;
44446;SDS011;30152;52.066;5.358;2024-02-26T16:05:33;9.77;;;4.95;;
44446;SDS011;30152;52.066;5.358;2024-02-26T16:07:59;12.65;;;5.53;;
44446;SDS011;30152;52.066;5.358;2024-02-26T16:10:26;10.80;;;5.67;;
44446;SDS011;30152;52.066;5.358;2024-02-26T16:12:57;12.80;;;5.70;;
44446;SDS011;30152;52.066;5.358;2024-02-26T16:15:24;11.75;;;5.45;;
44446;SDS011;30152;52.066;5.358;2024-02-26T16:17:50;11.63;;;6.20;;
44446;SDS011;30152;52.066;5.358;2024-02-26T16:20:18;10.70;;;5.88;;
44446;SDS011;30152;52.066;5.358;2024-02-26T16:22:44;12.65;;;6.32;;
44446;SDS011;30152;52.066;5.358;2024-02-26T16:25:10;12.20;;;6.35;;
44446;SDS011;30152;52.066;5.358;2024-02-26T16:27:36;11.23;;;6.38;;
44446;SDS011;30152;52.066;5.358;2024-02-26T16:30:06;11.23;;;6.07;;
44446;SDS011;30152;52.066;5.358;2024-02-26T16:32:35;11.25;;;6.05;;
44446;SDS011;30152;52.066;5.358;2024-02-26T16:35:05;11.73;;;6.03;;
44446;SDS011;30152;52.066;5.358;2024-02-26T16:37:33;13.63;;;6.38;;
44446;SDS011;30152;52.066;5.358;2024-02-26T16:40:00;13.57;;;6.90;;
44446;SDS011;30152;52.066;5.358;2024-02-26T16:42:29;10.55;;;6.20;;
44446;SDS011;30152;52.066;5.358;2024-02-26T16:44:55;12.38;;;6.82;;
44446;SDS011;30152;52.066;5.358;2024-02-26T16:47:21;13.68;;;6.72;;
44446;SDS011;30152;52.066;5.358;2024-02-26T16:49:48;11.77;;;6.93;;
44446;SDS011;30152;52.066;5.358;2024-02-26T16:52:14;16.00;;;8.80;;
44446;SDS011;30152;52.066;5.358;2024-02-26T16:54:40;15.83;;;7.60;;
44446;SDS011;30152;52.066;5.358;2024-02-26T16:57:06;15.13;;;8.40;;
44446;SDS011;30152;52.066;5.358;2024-02-26T16:59:32;15.40;;;9.17;;
44446;SDS011;30152;52.066;5.358;2024-02-26T17:02:01;13.65;;;7.03;;
44446;SDS011;30152;52.066;5.358;2024-02-26T17:04:27;14.48;;;7.55;;
44446;SDS011;30152;52.066;5.358;2024-02-26T17:06:53;12.50;;;7.07;;
44446;SDS011;30152;52.066;5.358;2024-02-26T17:09:19;12.83;;;7.43;;
44446;SDS011;30152;52.066;5.358;2024-02-26T17:11:46;12.63;;;7.03;;
44446;SDS011;30152;52.066;5.358;2024-02-26T17:14:12;14.07;;;7.60;;
44446;SDS011;30152;52.066;5.358;2024-02-26T17:16:38;14.02;;;7.50;;
44446;SDS011;30152;52.066;5.358;2024-02-26T17:19:04;13.85;;;7.65;;
44446;SDS011;30152;52.066;5.358;2024-02-26T17:21:30;13.02;;;7.70;;
44446;SDS011;30152;52.066;5.358;2024-02-26T17:23:56;13.90;;;8.03;;
44446;SDS011;30152;52.066;5.358;2024-02-26T17:26:23;13.63;;;7.45;;
44446;SDS011;30152;52.066;5.358;2024-02-26T17:28:50;15.02;;;7.80;;
44446;SDS011;30152;52.066;5.358;2024-02-26T17:31:16;63.00;;;30.13;;
44446;SDS011;30152;52.066;5.358;2024-02-26T17:33:44;13.10;;;7.47;;
44446;SDS011;30152;52.066;5.358;2024-02-26T17:36:10;14.30;;;7.45;;
44446;SDS011;30152;52.066;5.358;2024-02-26T17:38:37;15.50;;;8.10;;
44446;SDS011;30152;52.066;5.358;2024-02-26T17:41:06;12.67;;;7.20;;
44446;SDS011;30152;52.066;5.358;2024-02-26T17:43:32;15.38;;;9.57;;
44446;SDS011;30152;52.066;5.358;2024-02-26T17:45:58;17.30;;;8.00;;
44446;SDS011;30152;52.066;5.358;2024-02-26T17:48:24;16.38;;;8.20;;
44446;SDS011;30152;52.066;5.358;2024-02-26T17:50:50;14.88;;;7.95;;
44446;SDS011;30152;52.066;5.358;2024-02-26T17:53:18;14.25;;;7.45;;
44446;SDS011;30152;52.066;5.358;2024-02-26T17:55:44;15.25;;;7.53;;
44446;SDS011;30152;52.066;5.358;2024-02-26T17:58:10;15.30;;;7.95;;
44446;SDS011;30152;52.066;5.358;2024-02-26T18:00:36;15.90;;;8.35;;
44446;SDS011;30152;52.066;5.358;2024-02-26T18:03:02;15.23;;;8.32;;
44446;SDS011;30152;52.066;5.358;2024-02-26T18:05:28;15.75;;;8.63;;
44446;SDS011;30152;52.066;5.358;2024-02-26T18:07:54;16.15;;;9.10;;
44446;SDS011;30152;52.066;5.358;2024-02-26T18:10:20;15.40;;;8.98;;
44446;SDS011;30152;52.066;5.358;2024-02-26T18:12:50;16.45;;;9.05;;
44446;SDS011;30152;52.066;5.358;2024-02-26T18:15:17;16.92;;;8.75;;
44446;SDS011;30152;52.066;5.358;2024-02-26T18:17:43;18.52;;;8.73;;
44446;SDS011;30152;52.066;5.358;2024-02-26T18:20:09;17.15;;;8.90;;
44446;SDS011;30152;52.066;5.358;2024-02-26T18:22:36;17.98;;;9.55;;
44446;SDS011;30152;52.066;5.358;2024-02-26T18:25:02;17.90;;;8.90;;
44446;SDS011;30152;52.066;5.358;2024-02-26T18:27:28;16.48;;;9.50;;
44446;SDS011;30152;52.066;5.358;2024-02-26T18:29:56;16.58;;;9.43;;
44446;SDS011;30152;52.066;5.358;2024-02-26T18:32:22;14.32;;;8.27;;
44446;SDS011;30152;52.066;5.358;2024-02-26T18:34:48;15.90;;;8.40;;
44446;SDS011;30152;52.066;5.358;2024-02-26T18:37:14;15.60;;;7.93;;
44446;SDS011;30152;52.066;5.358;2024-02-26T18:39:40;14.00;;;7.47;;
44446;SDS011;30152;52.066;5.358;2024-02-26T18:42:06;13.45;;;7.90;;
44446;SDS011;30152;52.066;5.358;2024-02-26T18:44:32;14.68;;;7.80;;
44446;SDS011;30152;52.066;5.358;2024-02-26T18:47:01;15.57;;;7.90;;
44446;SDS011;30152;52.066;5.358;2024-02-26T18:49:28;14.18;;;7.63;;
44446;SDS011;30152;52.066;5.358;2024-02-26T18:51:57;15.85;;;8.32;;
44446;SDS011;30152;52.066;5.358;2024-02-26T18:54:23;17.65;;;7.85;;
44446;SDS011;30152;52.066;5.358;2024-02-26T18:56:49;14.05;;;8.23;;
44446;SDS011;30152;52.066;5.358;2024-02-26T18:59:15;16.15;;;7.97;;
44446;SDS011;30152;52.066;5.358;2024-02-26T19:01:41;15.23;;;7.65;;
44446;SDS011;30152;52.066;5.358;2024-02-26T19:04:07;16.10;;;8.13;;
44446;SDS011;30152;52.066;5.358;2024-02-26T19:06:34;12.60;;;7.30;;
44446;SDS011;30152;52.066;5.358;2024-02-26T19:09:03;14.68;;;7.20;;
44446;SDS011;30152;52.066;5.358;2024-02-26T19:11:29;14.55;;;8.43;;
44446;SDS011;30152;52.066;5.358;2024-02-26T19:13:55;13.77;;;7.55;;
44446;SDS011;30152;52.066;5.358;2024-02-26T19:16:25;16.38;;;7.97;;
44446;SDS011;30152;52.066;5.358;2024-02-26T19:18:52;14.48;;;7.50;;
44446;SDS011;30152;52.066;5.358;2024-02-26T19:21:19;17.53;;;8.87;;
44446;SDS011;30152;52.066;5.358;2024-02-26T19:23:45;13.23;;;7.22;;
44446;SDS011;30152;52.066;5.358;2024-02-26T19:26:11;15.38;;;7.60;;
44446;SDS011;30152;52.066;5.358;2024-02-26T19:28:37;14.80;;;7.32;;
44446;SDS011;30152;52.066;5.358;2024-02-26T19:31:08;12.95;;;7.40;;
44446;SDS011;30152;52.066;5.358;2024-02-26T19:33:34;17.13;;;7.30;;
44446;SDS011;30152;52.066;5.358;2024-02-26T19:36:00;14.17;;;7.47;;
44446;SDS011;30152;52.066;5.358;2024-02-26T19:38:27;14.57;;;7.15;;
44446;SDS011;30152;52.066;5.358;2024-02-26T19:40:53;13.50;;;8.05;;
44446;SDS011;30152;52.066;5.358;2024-02-26T19:43:19;12.88;;;7.47;;
44446;SDS011;30152;52.066;5.358;2024-02-26T19:45:45;17.73;;;7.95;;
44446;SDS011;30152;52.066;5.358;2024-02-26T19:48:11;14.00;;;7.53;;
44446;SDS011;30152;52.066;5.358;2024-02-26T19:50:37;18.02;;;7.78;;
44446;SDS011;30152;52.066;5.358;2024-02-26T19:53:03;14.82;;;7.10;;
44446;SDS011;30152;52.066;5.358;2024-02-26T19:55:29;15.05;;;7.60;;
44446;SDS011;30152;52.066;5.358;2024-02-26T19:57:55;13.30;;;7.50;;
44446;SDS011;30152;52.066;5.358;2024-02-26T20:00:25;15.43;;;7.60;;
44446;SDS011;30152;52.066;5.358;2024-02-26T20:02:51;13.57;;;8.10;;
44446;SDS011;30152;52.066;5.358;2024-02-26T20:05:17;15.10;;;8.07;;
44446;SDS011;30152;52.066;5.358;2024-02-26T20:07:43;15.07;;;7.90;;
44446;SDS011;30152;52.066;5.358;2024-02-26T20:10:09;18.63;;;9.30;;
44446;SDS011;30152;52.066;5.358;2024-02-26T20:12:36;15.93;;;8.05;;
44446;SDS011;30152;52.066;5.358;2024-02-26T20:15:02;14.77;;;8.13;;
44446;SDS011;30152;52.066;5.358;2024-02-26T20:17:28;16.15;;;8.73;;
44446;SDS011;30152;52.066;5.358;2024-02-26T20:19:54;15.95;;;8.75;;
44446;SDS011;30152;52.066;5.358;2024-02-26T20:22:22;16.38;;;9.00;;
44446;SDS011;30152;52.066;5.358;2024-02-26T20:24:48;16.60;;;8.10;;
44446;SDS011;30152;52.066;5.358;2024-02-26T20:27:14;17.93;;;8.97;;
44446;SDS011;30152;52.066;5.358;2024-02-26T20:29:40;16.03;;;9.03;;
44446;SDS011;30152;52.066;5.358;2024-02-26T20:32:06;19.10;;;10.70;;
44446;SDS011;30152;52.066;5.358;2024-02-26T20:34:32;18.17;;;9.80;;
44446;SDS011;30152;52.066;5.358;2024-02-26T20:36:58;22.77;;;12.47;;
44446;SDS011;30152;52.066;5.358;2024-02-26T20:39:26;17.40;;;9.20;;
44446;SDS011;30152;52.066;5.358;2024-02-26T20:41:53;19.05;;;9.32;;
44446;SDS011;30152;52.066;5.358;2024-02-26T20:44:21;20.33;;;11.32;;
44446;SDS011;30152;52.066;5.358;2024-02-26T20:46:47;16.98;;;9.30;;
44446;SDS011;30152;52.066;5.358;2024-02-26T20:49:14;50.25;;;27.05;;
44446;SDS011;30152;52.066;5.358;2024-02-26T20:51:42;22.42;;;12.05;;
44446;SDS011;30152;52.066;5.358;2024-02-26T20:54:08;17.52;;;9.00;;
44446;SDS011;30152;52.066;5.358;2024-02-26T20:56:36;15.70;;;8.57;;
44446;SDS011;30152;52.066;5.358;2024-02-26T20:59:03;16.30;;;9.00;;
44446;SDS011;30152;52.066;5.358;2024-02-26T21:01:29;16.00;;;9.07;;
44446;SDS011;30152;52.066;5.358;2024-02-26T21:03:55;17.00;;;9.30;;
44446;SDS011;30152;52.066;5.358;2024-02-26T21:06:21;17.50;;;8.97;;
44446;SDS011;30152;52.066;5.358;2024-02-26T21:08:47;16.47;;;9.07;;
44446;SDS011;30152;52.066;5.358;2024-02-26T21:11:14;15.60;;;8.63;;
44446;SDS011;30152;52.066;5.358;2024-02-26T21:13:40;16.37;;;9.20;;
44446;SDS011;30152;52.066;5.358;2024-02-26T21:16:08;17.25;;;9.43;;
44446;SDS011;30152;52.066;5.358;2024-02-26T21:18:34;18.38;;;9.20;;
44446;SDS011;30152;52.066;5.358;2024-02-26T21:21:03;17.90;;;9.47;;
44446;SDS011;30152;52.066;5.358;2024-02-26T21:23:30;17.50;;;8.75;;
44446;SDS011;30152;52.066;5.358;2024-02-26T21:25:55;14.82;;;9.00;;
44446;SDS011;30152;52.066;5.358;2024-02-26T21:28:22;17.45;;;9.35;;
44446;SDS011;30152;52.066;5.358;2024-02-26T21:30:47;17.92;;;9.82;;
44446;SDS011;30152;52.066;5.358;2024-02-26T21:33:13;16.80;;;9.45;;
44446;SDS011;30152;52.066;5.358;2024-02-26T21:35:39;16.48;;;9.23;;
44446;SDS011;30152;52.066;5.358;2024-02-26T21:38:05;19.92;;;9.73;;
44446;SDS011;30152;52.066;5.358;2024-02-26T21:40:31;19.02;;;9.80;;
44446;SDS011;30152;52.066;5.358;2024-02-26T21:42:57;19.70;;;10.25;;
44446;SDS011;30152;52.066;5.358;2024-02-26T21:45:23;20.23;;;9.85;;
44446;SDS011;30152;52.066;5.358;2024-02-26T21:47:49;17.92;;;9.75;;
44446;SDS011;30152;52.066;5.358;2024-02-26T21:50:16;17.83;;;10.05;;
44446;SDS011;30152;52.066;5.358;2024-02-26T21:52:42;19.17;;;11.13;;
44446;SDS011;30152;52.066;5.358;2024-02-26T21:55:09;20.08;;;10.52;;
44446;SDS011;30152;52.066;5.358;2024-02-26T21:57:38;19.33;;;10.45;;
44446;SDS011;30152;52.066;5.358;2024-02-26T22:00:04;20.88;;;10.95;;
44446;SDS011;30152;52.066;5.358;2024-02-26T22:02:31;17.92;;;10.30;;
44446;SDS011;30152;52.066;5.358;2024-02-26T22:04:57;19.23;;;10.65;;
44446;SDS011;30152;52.066;5.358;2024-02-26T22:07:23;21.08;;;10.73;;
44446;SDS011;30152;52.066;5.358;2024-02-26T22:09:49;19.83;;;10.85;;
44446;SDS011;30152;52.066;5.358;2024-02-26T22:12:15;18.90;;;10.38;;
44446;SDS011;30152;52.066;5.358;2024-02-26T22:14:41;18.73;;;11.10;;
44446;SDS011;30152;52.066;5.358;2024-02-26T22:17:08;19.95;;;10.90;;
44446;SDS011;30152;52.066;5.358;2024-02-26T22:19:34;20.75;;;11.05;;
44446;SDS011;30152;52.066;5.358;2024-02-26T22:22:00;19.93;;;10.90;;
44446;SDS011;30152;52.066;5.358;2024-02-26T22:24:26;23.63;;;11.20;;
44446;SDS011;30152;52.066;5.358;2024-02-26T22:26:54;20.20;;;11.15;;
44446;SDS011;30152;52.066;5.358;2024-02-26T22:29:20;19.15;;;10.98;;
44446;SDS011;30152;52.066;5.358;2024-02-26T22:31:46;19.88;;;11.20;;
44446;SDS011;30152;52.066;5.358;2024-02-26T22:34:17;19.33;;;10.50;;
44446;SDS011;30152;52.066;5.358;2024-02-26T22:36:44;18.60;;;10.15;;
